sensor_id;sensor_type;location;lat;lon;timestamp;temperature;humidity
54642;DHT22;40536;53.194;5.728;2023-07-20T00:00:45;13.70;99.90
54642;DHT22;40536;53.194;5.728;2023-07-20T00:03:14;13.70;99.90
54642;DHT22;40536;53.194;5.728;2023-07-20T00:05:44;13.60;99.90
54642;DHT22;40536;53.194;5.728;2023-07-20T00:08:10;13.60;99.90
54642;DHT22;40536;53.194;5.728;2023-07-20T00:10:36;13.50;99.90
54642;DHT22;40536;53.194;5.728;2023-07-20T00:13:01;13.50;99.90
54642;DHT22;40536;53.194;5.728;2023-07-20T00:15:27;13.40;99.90
54642;DHT22;40536;53.194;5.728;2023-07-20T00:17:53;13.40;99.90
54642;DHT22;40536;53.194;5.728;2023-07-20T00:20:18;13.30;99.90
54642;DHT22;40536;53.194;5.728;2023-07-20T00:22:44;13.30;99.90
54642;DHT22;40536;53.194;5.728;2023-07-20T00:25:09;13.20;99.90
54642;DHT22;40536;53.194;5.728;2023-07-20T00:27:37;13.20;99.90
54642;DHT22;40536;53.194;5.728;2023-07-20T00:30:04;13.10;99.90
54642;DHT22;40536;53.194;5.728;2023-07-20T00:32:30;13.10;99.90
54642;DHT22;40536;53.194;5.728;2023-07-20T00:34:55;13.10;99.90
54642;DHT22;40536;53.194;5.728;2023-07-20T00:37:21;13.00;99.90
54642;DHT22;40536;53.194;5.728;2023-07-20T00:39:46;13.00;99.90
54642;DHT22;40536;53.194;5.728;2023-07-20T00:42:12;13.00;99.90
54642;DHT22;40536;53.194;5.728;2023-07-20T00:44:38;12.90;99.90
54642;DHT22;40536;53.194;5.728;2023-07-20T00:47:04;12.90;99.90
54642;DHT22;40536;53.194;5.728;2023-07-20T00:49:31;12.80;99.90
54642;DHT22;40536;53.194;5.728;2023-07-20T00:51:57;12.80;99.90
54642;DHT22;40536;53.194;5.728;2023-07-20T00:54:22;12.80;99.90
54642;DHT22;40536;53.194;5.728;2023-07-20T00:56:49;12.70;99.90
54642;DHT22;40536;53.194;5.728;2023-07-20T00:59:15;12.80;99.90
54642;DHT22;40536;53.194;5.728;2023-07-20T01:01:41;12.80;99.90
54642;DHT22;40536;53.194;5.728;2023-07-20T01:04:07;12.70;99.90
54642;DHT22;40536;53.194;5.728;2023-07-20T01:09:18;12.70;99.90
54642;DHT22;40536;53.194;5.728;2023-07-20T01:14:23;12.70;99.90
54642;DHT22;40536;53.194;5.728;2023-07-20T01:16:49;12.60;99.90
54642;DHT22;40536;53.194;5.728;2023-07-20T01:19:17;12.60;99.90
54642;DHT22;40536;53.194;5.728;2023-07-20T01:22:03;12.60;99.90
54642;DHT22;40536;53.194;5.728;2023-07-20T01:32:46;12.40;99.90
54642;DHT22;40536;53.194;5.728;2023-07-20T01:35:13;12.40;99.90
54642;DHT22;40536;53.194;5.728;2023-07-20T01:37:42;12.40;99.90
54642;DHT22;40536;53.194;5.728;2023-07-20T01:40:11;12.40;99.90
54642;DHT22;40536;53.194;5.728;2023-07-20T01:42:37;12.30;99.90
54642;DHT22;40536;53.194;5.728;2023-07-20T01:45:03;12.30;99.90
54642;DHT22;40536;53.194;5.728;2023-07-20T01:47:28;12.30;99.90
54642;DHT22;40536;53.194;5.728;2023-07-20T01:49:54;12.20;99.90
54642;DHT22;40536;53.194;5.728;2023-07-20T01:52:20;12.20;99.90
54642;DHT22;40536;53.194;5.728;2023-07-20T01:54:46;12.10;99.90
54642;DHT22;40536;53.194;5.728;2023-07-20T01:57:12;12.10;99.90
54642;DHT22;40536;53.194;5.728;2023-07-20T01:59:38;12.10;99.90
54642;DHT22;40536;53.194;5.728;2023-07-20T02:02:04;12.00;99.90
54642;DHT22;40536;53.194;5.728;2023-07-20T02:04:29;11.90;99.90
54642;DHT22;40536;53.194;5.728;2023-07-20T02:06:55;12.00;99.90
54642;DHT22;40536;53.194;5.728;2023-07-20T02:09:20;11.90;99.90
54642;DHT22;40536;53.194;5.728;2023-07-20T02:11:46;11.90;99.90
54642;DHT22;40536;53.194;5.728;2023-07-20T02:14:12;11.90;99.90
54642;DHT22;40536;53.194;5.728;2023-07-20T02:16:37;11.80;99.90
54642;DHT22;40536;53.194;5.728;2023-07-20T02:19:03;11.80;99.90
54642;DHT22;40536;53.194;5.728;2023-07-20T02:21:29;11.80;99.90
54642;DHT22;40536;53.194;5.728;2023-07-20T02:23:55;11.80;99.90
54642;DHT22;40536;53.194;5.728;2023-07-20T02:26:20;11.80;99.90
54642;DHT22;40536;53.194;5.728;2023-07-20T02:28:46;11.80;99.90
54642;DHT22;40536;53.194;5.728;2023-07-20T02:31:12;11.80;99.90
54642;DHT22;40536;53.194;5.728;2023-07-20T02:33:37;11.80;99.90
54642;DHT22;40536;53.194;5.728;2023-07-20T02:36:03;11.80;99.90
54642;DHT22;40536;53.194;5.728;2023-07-20T02:38:28;11.70;99.90
54642;DHT22;40536;53.194;5.728;2023-07-20T02:40:54;11.70;99.90
54642;DHT22;40536;53.194;5.728;2023-07-20T02:43:20;11.70;99.90
54642;DHT22;40536;53.194;5.728;2023-07-20T02:45:45;11.60;99.90
54642;DHT22;40536;53.194;5.728;2023-07-20T02:48:11;11.60;99.90
54642;DHT22;40536;53.194;5.728;2023-07-20T02:50:37;11.60;99.90
54642;DHT22;40536;53.194;5.728;2023-07-20T02:53:03;11.70;99.90
54642;DHT22;40536;53.194;5.728;2023-07-20T02:55:29;11.40;99.90
54642;DHT22;40536;53.194;5.728;2023-07-20T02:57:55;11.50;99.90
54642;DHT22;40536;53.194;5.728;2023-07-20T03:00:20;11.40;99.90
54642;DHT22;40536;53.194;5.728;2023-07-20T03:02:48;11.40;99.90
54642;DHT22;40536;53.194;5.728;2023-07-20T03:05:14;11.40;99.90
54642;DHT22;40536;53.194;5.728;2023-07-20T03:07:42;11.40;99.90
54642;DHT22;40536;53.194;5.728;2023-07-20T03:10:09;11.50;99.90
54642;DHT22;40536;53.194;5.728;2023-07-20T03:12:35;11.40;99.90
54642;DHT22;40536;53.194;5.728;2023-07-20T03:15:02;11.40;99.90
54642;DHT22;40536;53.194;5.728;2023-07-20T03:17:28;11.40;99.90
54642;DHT22;40536;53.194;5.728;2023-07-20T03:19:54;11.30;99.90
54642;DHT22;40536;53.194;5.728;2023-07-20T03:22:19;11.30;99.90
54642;DHT22;40536;53.194;5.728;2023-07-20T03:24:46;11.30;99.90
54642;DHT22;40536;53.194;5.728;2023-07-20T03:27:12;11.40;99.90
54642;DHT22;40536;53.194;5.728;2023-07-20T03:29:38;11.30;99.90
54642;DHT22;40536;53.194;5.728;2023-07-20T03:32:04;11.40;99.90
54642;DHT22;40536;53.194;5.728;2023-07-20T03:34:30;11.40;99.90
54642;DHT22;40536;53.194;5.728;2023-07-20T03:36:55;11.50;99.90
54642;DHT22;40536;53.194;5.728;2023-07-20T03:39:22;11.60;99.90
54642;DHT22;40536;53.194;5.728;2023-07-20T03:41:48;11.60;99.90
54642;DHT22;40536;53.194;5.728;2023-07-20T03:44:14;11.70;99.90
54642;DHT22;40536;53.194;5.728;2023-07-20T03:46:40;11.70;99.90
54642;DHT22;40536;53.194;5.728;2023-07-20T03:49:05;11.70;99.90
54642;DHT22;40536;53.194;5.728;2023-07-20T03:51:32;11.80;99.90
54642;DHT22;40536;53.194;5.728;2023-07-20T03:53:58;11.80;99.90
54642;DHT22;40536;53.194;5.728;2023-07-20T03:56:24;11.70;99.90
54642;DHT22;40536;53.194;5.728;2023-07-20T03:58:51;11.70;99.90
54642;DHT22;40536;53.194;5.728;2023-07-20T04:01:18;11.70;99.90
54642;DHT22;40536;53.194;5.728;2023-07-20T04:03:45;11.70;99.90
54642;DHT22;40536;53.194;5.728;2023-07-20T04:06:10;11.70;99.90
54642;DHT22;40536;53.194;5.728;2023-07-20T04:08:36;11.70;99.90
54642;DHT22;40536;53.194;5.728;2023-07-20T04:11:02;11.80;99.90
54642;DHT22;40536;53.194;5.728;2023-07-20T04:13:28;11.80;99.90
54642;DHT22;40536;53.194;5.728;2023-07-20T04:15:54;11.80;99.90
54642;DHT22;40536;53.194;5.728;2023-07-20T04:18:20;11.80;99.90
54642;DHT22;40536;53.194;5.728;2023-07-20T04:20:46;11.80;99.90
54642;DHT22;40536;53.194;5.728;2023-07-20T04:23:12;11.90;99.90
54642;DHT22;40536;53.194;5.728;2023-07-20T04:25:39;11.90;99.90
54642;DHT22;40536;53.194;5.728;2023-07-20T04:28:08;11.90;99.90
54642;DHT22;40536;53.194;5.728;2023-07-20T04:30:35;11.90;99.90
54642;DHT22;40536;53.194;5.728;2023-07-20T04:33:02;11.90;99.90
54642;DHT22;40536;53.194;5.728;2023-07-20T04:35:50;11.90;99.90
54642;DHT22;40536;53.194;5.728;2023-07-20T04:38:16;12.00;99.90
54642;DHT22;40536;53.194;5.728;2023-07-20T04:40:47;12.20;99.90
54642;DHT22;40536;53.194;5.728;2023-07-20T04:43:14;12.40;99.90
54642;DHT22;40536;53.194;5.728;2023-07-20T04:45:40;12.50;99.90
54642;DHT22;40536;53.194;5.728;2023-07-20T04:48:12;12.70;99.90
54642;DHT22;40536;53.194;5.728;2023-07-20T04:50:41;13.00;99.90
54642;DHT22;40536;53.194;5.728;2023-07-20T04:53:06;13.10;99.90
54642;DHT22;40536;53.194;5.728;2023-07-20T04:55:32;13.30;99.90
54642;DHT22;40536;53.194;5.728;2023-07-20T04:58:02;13.50;99.90
54642;DHT22;40536;53.194;5.728;2023-07-20T05:00:29;13.70;99.90
54642;DHT22;40536;53.194;5.728;2023-07-20T05:02:56;13.90;99.90
54642;DHT22;40536;53.194;5.728;2023-07-20T05:05:22;14.00;99.90
54642;DHT22;40536;53.194;5.728;2023-07-20T05:07:47;14.20;99.90
54642;DHT22;40536;53.194;5.728;2023-07-20T05:10:13;14.40;99.90
54642;DHT22;40536;53.194;5.728;2023-07-20T05:12:39;14.60;99.90
54642;DHT22;40536;53.194;5.728;2023-07-20T05:15:04;14.80;99.90
54642;DHT22;40536;53.194;5.728;2023-07-20T05:17:30;14.90;99.90
54642;DHT22;40536;53.194;5.728;2023-07-20T05:19:56;15.10;99.90
54642;DHT22;40536;53.194;5.728;2023-07-20T05:22:22;15.40;99.90
54642;DHT22;40536;53.194;5.728;2023-07-20T05:24:47;15.70;99.90
54642;DHT22;40536;53.194;5.728;2023-07-20T05:27:13;15.80;99.90
54642;DHT22;40536;53.194;5.728;2023-07-20T05:29:47;16.00;99.90
54642;DHT22;40536;53.194;5.728;2023-07-20T05:32:13;16.10;99.90
54642;DHT22;40536;53.194;5.728;2023-07-20T05:34:39;16.30;99.90
54642;DHT22;40536;53.194;5.728;2023-07-20T05:37:05;16.70;99.90
54642;DHT22;40536;53.194;5.728;2023-07-20T05:39:32;17.10;99.90
54642;DHT22;40536;53.194;5.728;2023-07-20T05:41:58;17.40;99.90
54642;DHT22;40536;53.194;5.728;2023-07-20T05:44:24;17.80;99.90
54642;DHT22;40536;53.194;5.728;2023-07-20T05:46:49;18.10;99.90
54642;DHT22;40536;53.194;5.728;2023-07-20T05:49:15;18.40;99.90
54642;DHT22;40536;53.194;5.728;2023-07-20T05:51:40;18.60;99.90
54642;DHT22;40536;53.194;5.728;2023-07-20T05:54:06;18.80;99.90
54642;DHT22;40536;53.194;5.728;2023-07-20T05:56:32;19.10;99.90
54642;DHT22;40536;53.194;5.728;2023-07-20T05:58:57;19.30;99.90
54642;DHT22;40536;53.194;5.728;2023-07-20T06:01:23;19.50;99.90
54642;DHT22;40536;53.194;5.728;2023-07-20T06:03:52;19.60;99.90
54642;DHT22;40536;53.194;5.728;2023-07-20T06:06:18;19.70;99.90
54642;DHT22;40536;53.194;5.728;2023-07-20T06:08:43;19.90;99.90
54642;DHT22;40536;53.194;5.728;2023-07-20T06:11:10;19.90;99.90
54642;DHT22;40536;53.194;5.728;2023-07-20T06:13:35;20.20;99.90
54642;DHT22;40536;53.194;5.728;2023-07-20T06:16:01;20.30;99.90
54642;DHT22;40536;53.194;5.728;2023-07-20T06:18:27;20.60;99.90
54642;DHT22;40536;53.194;5.728;2023-07-20T06:20:53;20.90;99.90
54642;DHT22;40536;53.194;5.728;2023-07-20T06:23:19;21.00;99.90
54642;DHT22;40536;53.194;5.728;2023-07-20T06:25:45;21.10;99.90
54642;DHT22;40536;53.194;5.728;2023-07-20T06:28:11;21.30;99.90
54642;DHT22;40536;53.194;5.728;2023-07-20T06:30:37;21.40;99.90
54642;DHT22;40536;53.194;5.728;2023-07-20T06:33:02;21.70;99.90
54642;DHT22;40536;53.194;5.728;2023-07-20T06:35:28;21.90;99.90
54642;DHT22;40536;53.194;5.728;2023-07-20T06:37:54;22.00;99.90
54642;DHT22;40536;53.194;5.728;2023-07-20T06:40:20;22.10;99.90
54642;DHT22;40536;53.194;5.728;2023-07-20T06:42:46;22.20;99.90
54642;DHT22;40536;53.194;5.728;2023-07-20T06:45:11;22.30;99.90
54642;DHT22;40536;53.194;5.728;2023-07-20T06:47:40;22.20;99.90
54642;DHT22;40536;53.194;5.728;2023-07-20T06:50:07;22.00;99.90
54642;DHT22;40536;53.194;5.728;2023-07-20T06:52:33;21.80;99.90
54642;DHT22;40536;53.194;5.728;2023-07-20T06:54:59;21.60;99.90
54642;DHT22;40536;53.194;5.728;2023-07-20T06:57:25;21.10;99.90
54642;DHT22;40536;53.194;5.728;2023-07-20T06:59:51;20.90;99.90
54642;DHT22;40536;53.194;5.728;2023-07-20T07:02:16;21.20;99.90
54642;DHT22;40536;53.194;5.728;2023-07-20T07:04:42;21.90;99.90
54642;DHT22;40536;53.194;5.728;2023-07-20T07:07:08;22.60;99.90
54642;DHT22;40536;53.194;5.728;2023-07-20T07:09:34;23.20;99.90
54642;DHT22;40536;53.194;5.728;2023-07-20T07:12:00;23.70;99.90
54642;DHT22;40536;53.194;5.728;2023-07-20T07:14:26;24.00;99.90
54642;DHT22;40536;53.194;5.728;2023-07-20T07:16:52;24.30;99.90
54642;DHT22;40536;53.194;5.728;2023-07-20T07:19:17;24.40;99.90
54642;DHT22;40536;53.194;5.728;2023-07-20T07:21:43;24.70;99.90
54642;DHT22;40536;53.194;5.728;2023-07-20T07:24:09;25.20;99.90
54642;DHT22;40536;53.194;5.728;2023-07-20T07:26:36;25.00;99.90
54642;DHT22;40536;53.194;5.728;2023-07-20T07:29:02;24.70;99.90
54642;DHT22;40536;53.194;5.728;2023-07-20T07:31:34;25.10;99.90
54642;DHT22;40536;53.194;5.728;2023-07-20T07:34:01;25.30;99.90
54642;DHT22;40536;53.194;5.728;2023-07-20T07:36:28;25.00;99.90
54642;DHT22;40536;53.194;5.728;2023-07-20T07:38:53;24.50;99.90
54642;DHT22;40536;53.194;5.728;2023-07-20T07:41:19;24.20;99.90
54642;DHT22;40536;53.194;5.728;2023-07-20T07:43:46;24.70;99.90
54642;DHT22;40536;53.194;5.728;2023-07-20T07:46:11;25.50;99.90
54642;DHT22;40536;53.194;5.728;2023-07-20T07:48:37;26.00;99.90
54642;DHT22;40536;53.194;5.728;2023-07-20T07:51:04;26.70;99.90
54642;DHT22;40536;53.194;5.728;2023-07-20T07:53:31;27.30;99.90
54642;DHT22;40536;53.194;5.728;2023-07-20T07:55:58;27.90;99.90
54642;DHT22;40536;53.194;5.728;2023-07-20T07:58:23;28.50;99.90
54642;DHT22;40536;53.194;5.728;2023-07-20T08:00:49;29.00;99.90
54642;DHT22;40536;53.194;5.728;2023-07-20T08:03:15;29.00;99.30
54642;DHT22;40536;53.194;5.728;2023-07-20T08:05:41;28.00;99.50
54642;DHT22;40536;53.194;5.728;2023-07-20T08:08:06;26.80;99.90
54642;DHT22;40536;53.194;5.728;2023-07-20T08:10:34;26.30;99.90
54642;DHT22;40536;53.194;5.728;2023-07-20T08:12:59;25.90;99.90
54642;DHT22;40536;53.194;5.728;2023-07-20T08:15:25;25.60;99.90
54642;DHT22;40536;53.194;5.728;2023-07-20T08:17:51;26.10;99.90
54642;DHT22;40536;53.194;5.728;2023-07-20T08:20:17;26.60;99.90
54642;DHT22;40536;53.194;5.728;2023-07-20T08:22:43;26.80;99.90
54642;DHT22;40536;53.194;5.728;2023-07-20T08:25:09;26.40;99.90
54642;DHT22;40536;53.194;5.728;2023-07-20T08:27:36;26.90;99.90
54642;DHT22;40536;53.194;5.728;2023-07-20T08:30:02;27.70;99.90
54642;DHT22;40536;53.194;5.728;2023-07-20T08:32:29;28.50;99.90
54642;DHT22;40536;53.194;5.728;2023-07-20T08:34:55;29.10;99.20
54642;DHT22;40536;53.194;5.728;2023-07-20T08:37:21;29.70;98.70
54642;DHT22;40536;53.194;5.728;2023-07-20T08:39:46;29.80;98.20
54642;DHT22;40536;53.194;5.728;2023-07-20T08:42:14;29.10;98.00
54642;DHT22;40536;53.194;5.728;2023-07-20T08:44:42;27.60;97.70
54642;DHT22;40536;53.194;5.728;2023-07-20T08:47:09;26.90;98.40
54642;DHT22;40536;53.194;5.728;2023-07-20T08:49:39;26.00;99.00
54642;DHT22;40536;53.194;5.728;2023-07-20T08:52:06;25.40;99.90
54642;DHT22;40536;53.194;5.728;2023-07-20T08:54:32;24.80;99.90
54642;DHT22;40536;53.194;5.728;2023-07-20T08:57:02;24.10;99.90
54642;DHT22;40536;53.194;5.728;2023-07-20T08:59:29;24.00;99.90
54642;DHT22;40536;53.194;5.728;2023-07-20T09:01:57;24.80;99.90
54642;DHT22;40536;53.194;5.728;2023-07-20T09:04:23;25.90;99.90
54642;DHT22;40536;53.194;5.728;2023-07-20T09:06:49;26.90;99.90
54642;DHT22;40536;53.194;5.728;2023-07-20T09:09:16;27.90;99.60
54642;DHT22;40536;53.194;5.728;2023-07-20T09:11:42;28.90;99.10
54642;DHT22;40536;53.194;5.728;2023-07-20T09:14:09;29.80;99.00
54642;DHT22;40536;53.194;5.728;2023-07-20T09:16:55;30.70;98.20
54642;DHT22;40536;53.194;5.728;2023-07-20T09:19:21;31.70;95.90
54642;DHT22;40536;53.194;5.728;2023-07-20T09:21:52;31.20;96.40
54642;DHT22;40536;53.194;5.728;2023-07-20T09:24:19;29.80;96.00
54642;DHT22;40536;53.194;5.728;2023-07-20T09:26:46;28.30;96.70
54642;DHT22;40536;53.194;5.728;2023-07-20T09:29:19;26.90;97.40
54642;DHT22;40536;53.194;5.728;2023-07-20T09:32:02;26.00;98.20
54642;DHT22;40536;53.194;5.728;2023-07-20T09:34:28;26.80;99.00
54642;DHT22;40536;53.194;5.728;2023-07-20T09:36:55;28.10;98.80
54642;DHT22;40536;53.194;5.728;2023-07-20T09:39:21;29.60;98.30
54642;DHT22;40536;53.194;5.728;2023-07-20T09:41:47;30.70;97.20
54642;DHT22;40536;53.194;5.728;2023-07-20T09:44:15;31.10;96.50
54642;DHT22;40536;53.194;5.728;2023-07-20T09:46:45;30.10;96.10
54642;DHT22;40536;53.194;5.728;2023-07-20T09:49:11;28.90;96.20
54642;DHT22;40536;53.194;5.728;2023-07-20T09:51:37;28.50;96.70
54642;DHT22;40536;53.194;5.728;2023-07-20T09:54:04;27.90;96.80
54642;DHT22;40536;53.194;5.728;2023-07-20T09:56:30;26.90;97.00
54642;DHT22;40536;53.194;5.728;2023-07-20T09:58:58;26.40;97.80
54642;DHT22;40536;53.194;5.728;2023-07-20T10:01:24;26.90;98.20
54642;DHT22;40536;53.194;5.728;2023-07-20T10:03:58;28.10;97.90
54642;DHT22;40536;53.194;5.728;2023-07-20T10:06:24;29.30;97.40
54642;DHT22;40536;53.194;5.728;2023-07-20T10:08:56;29.70;96.80
54642;DHT22;40536;53.194;5.728;2023-07-20T10:11:29;29.60;96.80
54642;DHT22;40536;53.194;5.728;2023-07-20T10:13:56;29.60;96.50
54642;DHT22;40536;53.194;5.728;2023-07-20T10:16:30;30.10;97.00
54642;DHT22;40536;53.194;5.728;2023-07-20T10:19:11;31.00;97.00
54642;DHT22;40536;53.194;5.728;2023-07-20T10:21:42;31.40;95.20
54642;DHT22;40536;53.194;5.728;2023-07-20T10:24:11;30.90;95.70
54642;DHT22;40536;53.194;5.728;2023-07-20T10:26:38;30.70;96.40
54642;DHT22;40536;53.194;5.728;2023-07-20T10:29:04;31.50;96.10
54642;DHT22;40536;53.194;5.728;2023-07-20T10:31:30;31.70;95.50
54642;DHT22;40536;53.194;5.728;2023-07-20T10:33:57;30.90;95.30
54642;DHT22;40536;53.194;5.728;2023-07-20T10:36:27;29.90;95.60
54642;DHT22;40536;53.194;5.728;2023-07-20T10:38:54;28.40;95.60
54642;DHT22;40536;53.194;5.728;2023-07-20T10:41:23;26.80;96.40
54642;DHT22;40536;53.194;5.728;2023-07-20T10:44:07;25.90;97.10
54642;DHT22;40536;53.194;5.728;2023-07-20T10:46:45;25.80;97.50
54642;DHT22;40536;53.194;5.728;2023-07-20T10:49:13;25.00;97.60
54642;DHT22;40536;53.194;5.728;2023-07-20T10:51:45;24.80;98.20
54642;DHT22;40536;53.194;5.728;2023-07-20T10:56:43;25.20;98.70
54642;DHT22;40536;53.194;5.728;2023-07-20T10:59:24;25.80;99.00
54642;DHT22;40536;53.194;5.728;2023-07-20T11:02:08;26.60;97.60
54642;DHT22;40536;53.194;5.728;2023-07-20T11:04:38;26.70;97.20
54642;DHT22;40536;53.194;5.728;2023-07-20T11:07:05;25.30;97.50
54642;DHT22;40536;53.194;5.728;2023-07-20T11:09:38;24.30;98.70
54642;DHT22;40536;53.194;5.728;2023-07-20T11:12:14;24.60;99.10
54642;DHT22;40536;53.194;5.728;2023-07-20T11:14:54;25.10;98.20
54642;DHT22;40536;53.194;5.728;2023-07-20T11:17:31;25.90;97.40
54642;DHT22;40536;53.194;5.728;2023-07-20T11:20:01;26.30;98.30
54642;DHT22;40536;53.194;5.728;2023-07-20T11:22:27;26.50;97.40
54642;DHT22;40536;53.194;5.728;2023-07-20T11:24:56;27.40;97.20
54642;DHT22;40536;53.194;5.728;2023-07-20T11:27:22;27.80;96.90
54642;DHT22;40536;53.194;5.728;2023-07-20T11:29:48;28.30;96.40
54642;DHT22;40536;53.194;5.728;2023-07-20T11:32:20;28.10;96.00
54642;DHT22;40536;53.194;5.728;2023-07-20T11:34:47;27.60;95.60
54642;DHT22;40536;53.194;5.728;2023-07-20T11:37:13;28.20;95.80
54642;DHT22;40536;53.194;5.728;2023-07-20T11:39:39;28.80;96.30
54642;DHT22;40536;53.194;5.728;2023-07-20T11:42:05;28.70;96.10
54642;DHT22;40536;53.194;5.728;2023-07-20T11:44:32;28.90;95.30
54642;DHT22;40536;53.194;5.728;2023-07-20T11:47:02;29.00;95.10
54642;DHT22;40536;53.194;5.728;2023-07-20T11:49:29;28.70;94.70
54642;DHT22;40536;53.194;5.728;2023-07-20T11:51:55;28.70;94.80
54642;DHT22;40536;53.194;5.728;2023-07-20T11:54:23;28.50;95.40
54642;DHT22;40536;53.194;5.728;2023-07-20T11:56:54;28.40;94.40
54642;DHT22;40536;53.194;5.728;2023-07-20T11:59:21;28.50;94.70
54642;DHT22;40536;53.194;5.728;2023-07-20T12:01:47;27.50;95.20
54642;DHT22;40536;53.194;5.728;2023-07-20T12:04:12;27.60;95.50
54642;DHT22;40536;53.194;5.728;2023-07-20T12:06:38;27.70;95.60
54642;DHT22;40536;53.194;5.728;2023-07-20T12:09:04;27.50;95.70
54642;DHT22;40536;53.194;5.728;2023-07-20T12:11:37;27.70;95.50
54642;DHT22;40536;53.194;5.728;2023-07-20T12:14:06;27.90;95.20
54642;DHT22;40536;53.194;5.728;2023-07-20T12:16:32;27.40;95.50
54642;DHT22;40536;53.194;5.728;2023-07-20T12:19:11;27.20;95.20
54642;DHT22;40536;53.194;5.728;2023-07-20T12:21:39;27.00;95.40
54642;DHT22;40536;53.194;5.728;2023-07-20T12:24:07;26.70;95.80
54642;DHT22;40536;53.194;5.728;2023-07-20T12:26:34;26.90;95.50
54642;DHT22;40536;53.194;5.728;2023-07-20T12:29:00;27.40;95.30
54642;DHT22;40536;53.194;5.728;2023-07-20T12:31:27;27.70;95.50
54642;DHT22;40536;53.194;5.728;2023-07-20T12:33:57;27.40;95.20
54642;DHT22;40536;53.194;5.728;2023-07-20T12:36:24;27.10;95.90
54642;DHT22;40536;53.194;5.728;2023-07-20T12:38:50;27.20;95.50
54642;DHT22;40536;53.194;5.728;2023-07-20T12:41:16;27.20;94.80
54642;DHT22;40536;53.194;5.728;2023-07-20T12:43:42;27.10;95.20
54642;DHT22;40536;53.194;5.728;2023-07-20T12:46:09;26.80;95.60
54642;DHT22;40536;53.194;5.728;2023-07-20T12:48:36;26.30;95.20
54642;DHT22;40536;53.194;5.728;2023-07-20T12:51:05;25.90;96.00
54642;DHT22;40536;53.194;5.728;2023-07-20T12:53:32;25.60;97.20
54642;DHT22;40536;53.194;5.728;2023-07-20T12:55:58;25.40;96.30
54642;DHT22;40536;53.194;5.728;2023-07-20T12:58:24;25.50;96.30
54642;DHT22;40536;53.194;5.728;2023-07-20T13:00:50;25.30;95.80
54642;DHT22;40536;53.194;5.728;2023-07-20T13:03:15;25.50;96.50
54642;DHT22;40536;53.194;5.728;2023-07-20T13:05:44;25.90;96.50
54642;DHT22;40536;53.194;5.728;2023-07-20T13:08:09;25.80;96.70
54642;DHT22;40536;53.194;5.728;2023-07-20T13:10:36;25.70;96.30
54642;DHT22;40536;53.194;5.728;2023-07-20T13:13:02;25.80;96.30
54642;DHT22;40536;53.194;5.728;2023-07-20T13:15:31;25.80;96.80
54642;DHT22;40536;53.194;5.728;2023-07-20T13:17:58;25.70;96.70
54642;DHT22;40536;53.194;5.728;2023-07-20T13:20:24;25.70;96.80
54642;DHT22;40536;53.194;5.728;2023-07-20T13:22:50;25.60;97.10
54642;DHT22;40536;53.194;5.728;2023-07-20T13:25:16;25.20;97.80
54642;DHT22;40536;53.194;5.728;2023-07-20T13:27:42;25.50;96.90
54642;DHT22;40536;53.194;5.728;2023-07-20T13:30:08;25.30;97.70
54642;DHT22;40536;53.194;5.728;2023-07-20T13:32:35;25.00;97.50
54642;DHT22;40536;53.194;5.728;2023-07-20T13:35:02;24.60;97.20
54642;DHT22;40536;53.194;5.728;2023-07-20T13:37:27;24.40;98.00
54642;DHT22;40536;53.194;5.728;2023-07-20T13:39:54;24.10;97.90
54642;DHT22;40536;53.194;5.728;2023-07-20T13:42:19;24.10;97.80
54642;DHT22;40536;53.194;5.728;2023-07-20T13:44:49;24.10;97.90
54642;DHT22;40536;53.194;5.728;2023-07-20T13:47:15;23.60;98.10
54642;DHT22;40536;53.194;5.728;2023-07-20T13:49:41;23.20;98.40
54642;DHT22;40536;53.194;5.728;2023-07-20T13:52:07;23.20;99.00
54642;DHT22;40536;53.194;5.728;2023-07-20T13:54:32;23.20;99.10
54642;DHT22;40536;53.194;5.728;2023-07-20T13:56:58;23.20;99.00
54642;DHT22;40536;53.194;5.728;2023-07-20T13:59:24;23.50;99.90
54642;DHT22;40536;53.194;5.728;2023-07-20T14:01:49;23.40;98.80
54642;DHT22;40536;53.194;5.728;2023-07-20T14:04:15;23.70;98.50
54642;DHT22;40536;53.194;5.728;2023-07-20T14:06:41;23.70;98.30
54642;DHT22;40536;53.194;5.728;2023-07-20T14:09:06;23.70;98.80
54642;DHT22;40536;53.194;5.728;2023-07-20T14:11:32;23.70;99.10
54642;DHT22;40536;53.194;5.728;2023-07-20T14:13:58;23.90;99.50
54642;DHT22;40536;53.194;5.728;2023-07-20T14:16:24;23.90;99.00
54642;DHT22;40536;53.194;5.728;2023-07-20T14:18:50;23.60;99.90
54642;DHT22;40536;53.194;5.728;2023-07-20T14:21:17;23.90;99.50
54642;DHT22;40536;53.194;5.728;2023-07-20T14:23:47;24.30;99.40
54642;DHT22;40536;53.194;5.728;2023-07-20T14:26:14;24.20;97.90
54642;DHT22;40536;53.194;5.728;2023-07-20T14:28:39;23.70;98.60
54642;DHT22;40536;53.194;5.728;2023-07-20T14:31:05;23.40;98.70
54642;DHT22;40536;53.194;5.728;2023-07-20T14:33:31;23.30;98.90
54642;DHT22;40536;53.194;5.728;2023-07-20T14:35:57;23.30;99.90
54642;DHT22;40536;53.194;5.728;2023-07-20T14:38:23;23.40;99.90
54642;DHT22;40536;53.194;5.728;2023-07-20T14:40:48;23.50;99.40
54642;DHT22;40536;53.194;5.728;2023-07-20T14:43:14;23.20;99.20
54642;DHT22;40536;53.194;5.728;2023-07-20T14:45:43;22.80;99.70
54642;DHT22;40536;53.194;5.728;2023-07-20T14:48:09;22.40;99.70
54642;DHT22;40536;53.194;5.728;2023-07-20T14:50:35;22.30;99.90
54642;DHT22;40536;53.194;5.728;2023-07-20T14:53:00;22.50;99.90
54642;DHT22;40536;53.194;5.728;2023-07-20T14:55:26;22.90;99.90
54642;DHT22;40536;53.194;5.728;2023-07-20T14:57:52;23.30;99.90
54642;DHT22;40536;53.194;5.728;2023-07-20T15:00:18;23.70;99.50
54642;DHT22;40536;53.194;5.728;2023-07-20T15:02:44;23.70;99.70
54642;DHT22;40536;53.194;5.728;2023-07-20T15:05:10;23.70;99.20
54642;DHT22;40536;53.194;5.728;2023-07-20T15:07:36;23.70;99.40
54642;DHT22;40536;53.194;5.728;2023-07-20T15:10:03;23.50;99.00
54642;DHT22;40536;53.194;5.728;2023-07-20T15:12:30;23.30;99.60
54642;DHT22;40536;53.194;5.728;2023-07-20T15:15:22;23.00;99.70
54642;DHT22;40536;53.194;5.728;2023-07-20T15:17:48;22.80;99.90
54642;DHT22;40536;53.194;5.728;2023-07-20T15:20:16;22.80;99.70
54642;DHT22;40536;53.194;5.728;2023-07-20T15:22:42;22.90;99.60
54642;DHT22;40536;53.194;5.728;2023-07-20T15:25:09;22.80;99.80
54642;DHT22;40536;53.194;5.728;2023-07-20T15:27:37;22.70;99.90
54642;DHT22;40536;53.194;5.728;2023-07-20T15:30:03;22.80;99.90
54642;DHT22;40536;53.194;5.728;2023-07-20T15:32:28;22.80;99.90
54642;DHT22;40536;53.194;5.728;2023-07-20T15:34:54;22.60;99.90
54642;DHT22;40536;53.194;5.728;2023-07-20T15:37:20;22.30;99.90
54642;DHT22;40536;53.194;5.728;2023-07-20T15:39:49;22.00;99.90
54642;DHT22;40536;53.194;5.728;2023-07-20T15:42:15;21.80;99.90
54642;DHT22;40536;53.194;5.728;2023-07-20T15:44:41;21.80;99.90